createdAt,value
2019-04-29T00:00:59.605Z,4.73
2019-04-29T00:03:31.192Z,4.83
2019-04-29T00:06:01.394Z,4.88
2019-04-29T00:08:31.713Z,4.91
2019-04-29T00:11:01.877Z,4.95
2019-04-29T00:13:32.092Z,4.92
2019-04-29T00:16:15.481Z,4.90
2019-04-29T00:19:09.127Z,4.93
2019-04-29T00:21:39.827Z,4.98
2019-04-29T00:24:09.969Z,4.95
2019-04-29T00:26:40.319Z,4.89
2019-04-29T00:29:10.453Z,4.87
2019-04-29T00:31:40.691Z,4.86
2019-04-29T00:34:10.814Z,4.89
2019-04-29T00:36:48.343Z,4.88
2019-04-29T00:39:49.781Z,4.86
2019-04-29T00:42:37.701Z,4.88
2019-04-29T00:45:08.378Z,4.73
2019-04-29T00:47:38.463Z,4.76
2019-04-29T00:50:08.586Z,4.72
2019-04-29T00:52:38.715Z,4.68
2019-04-29T00:55:12.405Z,4.73
2019-04-29T00:57:42.787Z,4.76
2019-04-29T01:00:15.107Z,4.80
2019-04-29T01:02:45.398Z,4.91
2019-04-29T01:05:16.633Z,4.94
2019-04-29T01:07:46.764Z,4.90
2019-04-29T01:10:17.068Z,4.79
2019-04-29T01:12:47.391Z,4.71
2019-04-29T01:15:18.839Z,4.63
2019-04-29T01:17:49.286Z,4.55
2019-04-29T01:20:19.590Z,4.46
2019-04-29T01:22:49.898Z,4.41
2019-04-29T01:25:20.182Z,4.28
2019-04-29T01:27:57.125Z,4.18
2019-04-29T01:30:54.011Z,4.15
2019-04-29T01:33:24.597Z,4.13
2019-04-29T01:36:09.130Z,4.12
2019-04-29T01:38:39.505Z,4.09
2019-04-29T01:41:14.452Z,4.11
2019-04-29T01:44:04.783Z,4.04
2019-04-29T01:46:34.947Z,3.99
2019-04-29T01:49:05.498Z,3.93
2019-04-29T01:51:35.981Z,3.97
2019-04-29T01:54:06.341Z,3.99
2019-04-29T01:56:36.468Z,3.92
2019-04-29T01:59:06.667Z,3.84
2019-04-29T02:01:36.983Z,3.78
2019-04-29T02:04:07.442Z,3.70
2019-04-29T02:06:37.473Z,3.67
2019-04-29T02:09:11.339Z,3.59
2019-04-29T02:11:41.626Z,3.61
2019-04-29T02:14:11.758Z,3.60
2019-04-29T02:16:42.010Z,3.54
2019-04-29T02:19:12.231Z,3.47
2019-04-29T02:21:45.065Z,3.44
2019-04-29T02:24:17.547Z,3.34
2019-04-29T02:26:47.669Z,3.38
2019-04-29T02:29:17.798Z,3.37
2019-04-29T02:31:48.324Z,3.48
2019-04-29T02:34:18.427Z,3.53
2019-04-29T02:36:48.542Z,3.53
2019-04-29T02:39:34.310Z,3.54
2019-04-29T02:42:22.563Z,3.54
2019-04-29T02:44:53.389Z,3.56
2019-04-29T02:47:23.614Z,3.56
2019-04-29T02:49:53.814Z,3.55
2019-04-29T02:52:24.009Z,3.51
2019-04-29T02:54:58.164Z,3.48
2019-04-29T02:57:45.708Z,3.46
2019-04-29T03:00:37.938Z,3.49
2019-04-29T03:03:14.915Z,3.45
2019-04-29T03:05:50.622Z,3.40
2019-04-29T03:08:20.953Z,3.41
2019-04-29T03:10:53.429Z,3.38
2019-04-29T03:13:23.684Z,3.33
2019-04-29T03:15:53.975Z,3.31
2019-04-29T03:18:26.435Z,3.22
2019-04-29T03:21:19.511Z,3.12
2019-04-29T03:23:49.824Z,3.07
2019-04-29T03:26:20.840Z,3.02
2019-04-29T03:28:51.208Z,2.94
2019-04-29T03:31:21.400Z,2.86
2019-04-29T03:33:51.644Z,2.86
2019-04-29T03:36:22.176Z,2.87
2019-04-29T03:38:52.379Z,2.79
2019-04-29T03:41:22.632Z,2.75
2019-04-29T03:43:53.645Z,2.67
2019-04-29T03:46:23.837Z,2.58
2019-04-29T03:48:54.104Z,2.54
2019-04-29T03:51:25.304Z,2.51
2019-04-29T03:53:55.703Z,2.47
2019-04-29T03:56:26.223Z,2.45
2019-04-29T03:58:56.533Z,2.46
2019-04-29T04:01:32.344Z,2.47
2019-04-29T04:04:07.659Z,2.44
2019-04-29T04:07:03.633Z,2.34
2019-04-29T04:09:33.258Z,2.30
2019-04-29T04:12:03.636Z,2.24
2019-04-29T04:14:34.110Z,2.23
2019-04-29T04:17:14.501Z,2.34
2019-04-29T04:19:45.313Z,2.22
2019-04-29T04:22:15.477Z,2.13
2019-04-29T04:24:45.847Z,2.10
2019-04-29T04:27:16.012Z,2.14
2019-04-29T04:29:46.279Z,2.14
2019-04-29T04:32:16.904Z,2.18
2019-04-29T04:34:47.427Z,2.24
2019-04-29T04:37:17.535Z,2.28
2019-04-29T04:39:47.793Z,2.15
2019-04-29T04:42:18.109Z,2.13
2019-04-29T04:44:48.850Z,2.17
2019-04-29T04:47:21.158Z,2.16
2019-04-29T04:49:52.043Z,2.22
2019-04-29T04:52:22.459Z,2.24
2019-04-29T04:54:54.489Z,2.34
2019-04-29T04:57:24.777Z,2.48
2019-04-29T04:59:55.217Z,2.52
2019-04-29T05:02:26.582Z,2.56
2019-04-29T05:04:57.019Z,2.64
2019-04-29T05:07:27.429Z,2.67
2019-04-29T05:09:57.669Z,2.72
2019-04-29T05:12:28.999Z,2.75
2019-04-29T05:14:59.172Z,2.76
2019-04-29T05:17:29.381Z,2.77
2019-04-29T05:19:59.814Z,2.79
2019-04-29T05:22:30.065Z,2.78
2019-04-29T05:25:00.285Z,2.74
2019-04-29T05:27:30.507Z,2.72
2019-04-29T05:30:01.072Z,2.81
2019-04-29T05:32:32.358Z,3.00
2019-04-29T05:35:04.664Z,3.13
2019-04-29T05:37:51.938Z,3.24
2019-04-29T05:40:39.791Z,3.35
2019-04-29T05:43:12.498Z,3.45
2019-04-29T05:46:01.698Z,3.49
2019-04-29T05:48:33.238Z,3.56
2019-04-29T05:51:22.816Z,3.64
2019-04-29T05:53:55.144Z,3.68
2019-04-29T05:56:26.164Z,3.74
2019-04-29T05:58:56.509Z,3.81
2019-04-29T06:01:29.117Z,3.84
2019-04-29T06:03:59.794Z,3.86
2019-04-29T06:06:30.893Z,3.90
2019-04-29T06:09:01.282Z,3.99
2019-04-29T06:11:34.282Z,4.10
2019-04-29T06:14:05.073Z,4.18
2019-04-29T06:16:35.531Z,4.22
2019-04-29T06:19:06.092Z,4.27
2019-04-29T06:21:36.775Z,4.41
2019-04-29T06:24:06.993Z,4.53
2019-04-29T06:26:37.352Z,4.66
2019-04-29T06:29:07.637Z,4.83
2019-04-29T06:31:37.768Z,5.08
2019-04-29T06:34:08.072Z,5.31
2019-04-29T06:36:38.258Z,5.45
2019-04-29T06:39:08.408Z,5.64
2019-04-29T06:41:40.607Z,5.95
2019-04-29T06:44:16.115Z,6.28
2019-04-29T06:46:42.959Z,6.69
2019-04-29T06:49:13.223Z,7.18
2019-04-29T06:51:43.372Z,7.54
2019-04-29T06:54:13.506Z,7.83
2019-04-29T06:56:43.660Z,7.93
2019-04-29T06:59:14.109Z,7.91
2019-04-29T07:01:44.587Z,8.06
2019-04-29T07:04:15.252Z,8.15
2019-04-29T07:06:56.721Z,8.23
2019-04-29T07:09:17.396Z,8.37
2019-04-29T07:11:47.747Z,8.58
2019-04-29T07:14:17.961Z,8.78
2019-04-29T07:16:48.264Z,9.19
2019-04-29T07:19:18.468Z,9.28
2019-04-29T07:21:51.468Z,9.41
2019-04-29T07:24:20.795Z,9.88
2019-04-29T07:26:50.890Z,10.05
2019-04-29T07:29:21.573Z,10.05
2019-04-29T07:31:53.130Z,10.17
2019-04-29T07:34:23.379Z,10.35
2019-04-29T07:36:57.629Z,10.20
2019-04-29T07:39:26.830Z,10.67
2019-04-29T07:41:57.697Z,11.34
2019-04-29T07:44:43.336Z,11.95
2019-04-29T07:47:03.057Z,13.14
2019-04-29T07:49:33.310Z,13.66
2019-04-29T07:52:03.528Z,13.93
2019-04-29T07:54:33.954Z,14.80
2019-04-29T07:57:04.144Z,14.76
2019-04-29T07:59:38.370Z,15.06
2019-04-29T08:02:06.296Z,15.66
2019-04-29T08:04:36.590Z,16.38
2019-04-29T08:07:06.885Z,16.03
2019-04-29T08:09:39.984Z,16.75
2019-04-29T08:12:10.189Z,16.76
2019-04-29T08:14:41.263Z,16.78
2019-04-29T08:17:11.550Z,16.85
2019-04-29T08:19:41.898Z,16.18
2019-04-29T08:22:15.448Z,16.04
2019-04-29T08:24:45.865Z,16.03
2019-04-29T08:27:17.093Z,16.81
2019-04-29T08:29:47.301Z,17.22
2019-04-29T08:32:17.888Z,16.64
2019-04-29T08:34:48.558Z,17.01
2019-04-29T08:37:18.994Z,17.10
2019-04-29T08:40:08.373Z,17.07
2019-04-29T08:42:26.254Z,17.17
2019-04-29T08:45:24.779Z,17.79
2019-04-29T08:47:55.418Z,18.42
2019-04-29T08:50:25.994Z,19.00
2019-04-29T08:52:56.298Z,18.48
2019-04-29T08:55:31.375Z,17.92
2019-04-29T08:57:59.289Z,17.60
2019-04-29T09:00:29.741Z,17.64
2019-04-29T09:02:59.930Z,18.26
2019-04-29T09:05:30.092Z,18.53
2019-04-29T09:08:00.242Z,18.96
2019-04-29T09:10:37.904Z,19.11
2019-04-29T09:13:02.680Z,19.74
2019-04-29T09:15:32.873Z,19.86
2019-04-29T09:18:03.118Z,19.85
2019-04-29T09:20:33.385Z,20.16
2019-04-29T09:23:08.218Z,20.12
2019-04-29T09:25:45.330Z,20.54
2019-04-29T09:28:18.273Z,20.57
2019-04-29T09:30:48.303Z,21.59
2019-04-29T09:33:18.731Z,22.16
2019-04-29T09:35:49.092Z,22.93
2019-04-29T09:38:19.334Z,22.87
2019-04-29T09:41:04.680Z,22.25
2019-04-29T09:43:47.948Z,21.56
2019-04-29T09:46:23.150Z,22.37
2019-04-29T09:48:54.264Z,23.36
2019-04-29T09:51:27.797Z,23.21
2019-04-29T09:53:57.525Z,22.25
2019-04-29T09:56:27.842Z,22.65
2019-04-29T09:59:16.100Z,22.95
2019-04-29T10:01:55.121Z,22.00
2019-04-29T10:04:55.919Z,19.59
2019-04-29T10:07:17.041Z,20.76
2019-04-29T10:09:56.975Z,20.93
2019-04-29T10:12:19.484Z,21.27
2019-04-29T10:14:49.793Z,21.44
2019-04-29T10:17:27.540Z,21.39
2019-04-29T10:20:03.165Z,20.60
2019-04-29T10:22:35.204Z,20.86
2019-04-29T10:25:06.096Z,21.21
2019-04-29T10:27:36.566Z,20.96
2019-04-29T10:30:08.127Z,21.39
2019-04-29T10:32:42.391Z,21.57
2019-04-29T10:35:11.099Z,20.85
2019-04-29T10:37:42.890Z,20.61
2019-04-29T10:40:23.697Z,21.15
2019-04-29T10:43:15.552Z,21.43
2019-04-29T10:46:14.166Z,21.09
2019-04-29T10:48:54.615Z,21.41
2019-04-29T10:51:27.475Z,20.96
2019-04-29T10:53:58.176Z,20.89
2019-04-29T10:56:28.451Z,20.88
2019-04-29T10:58:58.893Z,20.88
2019-04-29T11:02:20.154Z,21.36
2019-04-29T11:04:51.818Z,21.31
2019-04-29T11:07:29.303Z,21.42
2019-04-29T11:10:09.325Z,21.41
2019-04-29T11:12:39.775Z,21.18
2019-04-29T11:15:13.939Z,21.30
2019-04-29T11:17:44.711Z,22.24
2019-04-29T11:20:15.967Z,22.61
2019-04-29T11:22:52.492Z,21.92
2019-04-29T11:25:34.385Z,22.21
2019-04-29T11:28:04.764Z,22.61
2019-04-29T11:30:39.462Z,22.33
2019-04-29T11:33:17.453Z,22.17
2019-04-29T11:35:59.156Z,22.26
2019-04-29T11:38:32.929Z,22.59
2019-04-29T11:41:03.068Z,22.59
2019-04-29T11:43:33.713Z,22.64
2019-04-29T11:46:04.654Z,22.97
2019-04-29T11:48:35.495Z,23.25
2019-04-29T11:51:34.103Z,22.55
2019-04-29T11:54:03.061Z,22.25
2019-04-29T11:56:33.743Z,21.91
2019-04-29T11:59:29.704Z,22.33
2019-04-29T12:02:14.494Z,22.18
2019-04-29T12:04:49.073Z,22.44
2019-04-29T12:07:21.232Z,22.66
2019-04-29T12:09:52.000Z,22.87
2019-04-29T12:12:23.063Z,23.01
2019-04-29T12:15:15.679Z,22.69
2019-04-29T12:18:07.819Z,22.53
2019-04-29T12:20:56.081Z,22.39
2019-04-29T12:23:27.037Z,21.81
2019-04-29T12:25:58.709Z,22.48
2019-04-29T12:28:29.942Z,21.26
2019-04-29T12:31:05.687Z,21.57
2019-04-29T12:33:43.847Z,21.69
2019-04-29T12:36:16.391Z,21.65
2019-04-29T12:39:11.663Z,20.98
2019-04-29T12:42:00.629Z,21.28
2019-04-29T12:44:47.968Z,21.16
2019-04-29T12:47:27.143Z,20.42
2019-04-29T12:49:57.139Z,20.93
2019-04-29T12:52:28.307Z,21.36
2019-04-29T12:55:03.104Z,21.81
2019-04-29T12:57:30.940Z,21.07
2019-04-29T13:00:01.671Z,21.30
2019-04-29T13:03:06.218Z,20.95
2019-04-29T13:05:58.334Z,20.59
2019-04-29T13:08:46.195Z,21.20
2019-04-29T13:11:19.151Z,21.31
2019-04-29T13:13:51.394Z,20.42
2019-04-29T13:16:46.077Z,20.26
2019-04-29T13:19:25.069Z,19.60
2019-04-29T13:21:56.568Z,19.93
2019-04-29T13:24:27.067Z,19.98
2019-04-29T13:26:57.711Z,19.94
2019-04-29T13:29:32.050Z,19.78
2019-04-29T13:32:01.829Z,20.03
2019-04-29T13:34:37.013Z,19.47
2019-04-29T13:37:12.309Z,19.69
2019-04-29T13:39:40.792Z,19.74
2019-04-29T13:42:15.506Z,19.74
2019-04-29T13:45:04.511Z,20.06
2019-04-29T13:47:41.129Z,19.92
2019-04-29T13:50:33.851Z,19.88
2019-04-29T13:52:47.514Z,19.76
2019-04-29T13:55:41.533Z,19.80
2019-04-29T13:57:50.877Z,19.21
2019-04-29T14:00:43.271Z,19.18
2019-04-29T14:03:17.432Z,19.17
2019-04-29T14:05:48.094Z,19.03
2019-04-29T14:08:18.391Z,18.62
2019-04-29T14:10:51.115Z,18.93
2019-04-29T14:13:25.846Z,18.94
2019-04-29T14:15:57.284Z,18.54
2019-04-29T14:18:27.765Z,19.02
2019-04-29T14:20:58.066Z,18.78
2019-04-29T14:23:28.253Z,18.70
2019-04-29T14:25:58.656Z,18.79
2019-04-29T14:28:28.920Z,18.27
2019-04-29T14:30:59.517Z,18.80
2019-04-29T14:33:36.794Z,18.93
2019-04-29T14:36:09.026Z,18.92
2019-04-29T14:38:40.587Z,17.95
2019-04-29T14:41:14.331Z,17.89
2019-04-29T14:44:05.014Z,18.23
2019-04-29T14:46:57.253Z,17.83
2019-04-29T14:49:31.419Z,17.87
2019-04-29T14:52:03.477Z,17.83
2019-04-29T14:54:36.956Z,17.65
2019-04-29T14:57:08.952Z,17.55
2019-04-29T14:59:38.283Z,17.53
2019-04-29T15:02:17.090Z,17.39
2019-04-29T15:04:46.689Z,17.07
2019-04-29T15:07:17.373Z,17.16
2019-04-29T15:09:58.049Z,17.51
2019-04-29T15:12:52.139Z,17.11
2019-04-29T15:15:39.036Z,17.12
2019-04-29T15:18:45.862Z,16.62
2019-04-29T15:21:31.019Z,16.79
2019-04-29T15:23:50.240Z,16.77
2019-04-29T15:26:20.686Z,16.48
2019-04-29T15:28:54.025Z,16.19
2019-04-29T15:31:25.485Z,15.87
2019-04-29T15:33:55.901Z,16.15
2019-04-29T15:36:26.247Z,16.00
2019-04-29T15:39:09.112Z,16.06
2019-04-29T15:41:30.981Z,15.76
2019-04-29T15:44:07.639Z,15.80
2019-04-29T15:46:45.256Z,15.54
2019-04-29T15:49:05.651Z,15.89
2019-04-29T15:51:37.232Z,16.05
2019-04-29T15:54:09.335Z,16.16
2019-04-29T15:56:40.026Z,15.93
2019-04-29T15:59:11.034Z,15.79
2019-04-29T16:01:42.328Z,15.45
2019-04-29T16:04:20.825Z,15.42
2019-04-29T16:07:07.691Z,15.37
2019-04-29T16:09:51.918Z,15.39
2019-04-29T16:12:25.906Z,15.00
2019-04-29T16:14:56.100Z,15.26
2019-04-29T16:17:26.502Z,15.13
2019-04-29T16:19:57.167Z,15.09
2019-04-29T16:22:27.568Z,15.12
2019-04-29T16:24:59.391Z,14.87
2019-04-29T16:27:29.932Z,14.97
2019-04-29T16:30:00.322Z,14.80
2019-04-29T16:32:49.237Z,14.71
2019-04-29T16:35:23.777Z,14.41
2019-04-29T16:37:51.813Z,14.33
2019-04-29T16:40:23.024Z,14.36
2019-04-29T16:43:01.982Z,14.35
2019-04-29T16:45:54.196Z,14.34
2019-04-29T16:48:24.758Z,14.10
2019-04-29T16:50:55.071Z,14.01
2019-04-29T16:53:25.496Z,14.07
2019-04-29T16:55:55.694Z,14.05
2019-04-29T16:58:26.004Z,13.98
2019-04-29T17:00:56.800Z,13.94
2019-04-29T17:03:27.115Z,13.87
2019-04-29T17:05:57.404Z,13.76
2019-04-29T17:08:36.993Z,13.77
2019-04-29T17:11:17.560Z,13.47
2019-04-29T17:13:47.097Z,13.08
2019-04-29T17:16:19.169Z,13.21
2019-04-29T17:18:49.585Z,12.82
2019-04-29T17:21:20.535Z,12.88
2019-04-29T17:23:51.112Z,12.90
2019-04-29T17:26:23.229Z,12.90
2019-04-29T17:29:37.877Z,12.79
2019-04-29T17:32:04.775Z,12.81
2019-04-29T17:34:56.867Z,12.47
2019-04-29T17:37:08.947Z,12.40
2019-04-29T17:39:39.696Z,12.46
2019-04-29T17:42:10.151Z,12.40
2019-04-29T17:44:45.657Z,12.38
2019-04-29T17:47:50.980Z,12.32
2019-04-29T17:50:30.850Z,12.17
2019-04-29T17:53:01.815Z,12.18
2019-04-29T17:55:45.309Z,12.07
2019-04-29T17:58:19.983Z,12.06
2019-04-29T18:01:12.256Z,12.04
2019-04-29T18:04:20.115Z,11.87
2019-04-29T18:07:11.988Z,11.78
2019-04-29T18:09:47.448Z,11.80
2019-04-29T18:12:24.913Z,11.78
2019-04-29T18:14:55.846Z,11.48
2019-04-29T18:17:31.136Z,11.49
2019-04-29T18:20:32.860Z,11.53
2019-04-29T18:23:19.117Z,11.49
2019-04-29T18:26:08.625Z,11.43
2019-04-29T18:28:39.307Z,11.43
2019-04-29T18:31:12.981Z,11.36
2019-04-29T18:33:45.110Z,11.24
2019-04-29T18:36:23.523Z,11.25
2019-04-29T18:38:50.074Z,11.22
2019-04-29T18:41:25.433Z,11.20
2019-04-29T18:43:56.328Z,11.16
2019-04-29T18:46:25.877Z,11.14
2019-04-29T18:49:03.135Z,11.11
2019-04-29T18:51:29.830Z,11.06
2019-04-29T18:54:00.395Z,10.97
2019-04-29T18:56:35.858Z,10.91
2019-04-29T18:59:02.866Z,10.82
2019-04-29T19:01:34.911Z,10.82
2019-04-29T19:04:17.326Z,10.77
2019-04-29T19:06:46.912Z,10.72
2019-04-29T19:09:20.768Z,10.67
2019-04-29T19:11:53.199Z,10.63
2019-04-29T19:14:26.915Z,10.58
2019-04-29T19:17:00.117Z,10.32
2019-04-29T19:19:30.870Z,10.20
2019-04-29T19:22:04.858Z,10.20
2019-04-29T19:24:36.338Z,10.22
2019-04-29T19:27:09.143Z,10.12
2019-04-29T19:29:38.777Z,10.18
2019-04-29T19:32:10.578Z,10.14
2019-04-29T19:34:43.453Z,10.10
2019-04-29T19:37:15.272Z,10.08
2019-04-29T19:39:45.954Z,9.98
2019-04-29T19:42:28.668Z,9.95
2019-04-29T19:44:50.157Z,9.78
2019-04-29T19:47:20.820Z,9.80
2019-04-29T19:49:51.833Z,9.81
2019-04-29T19:52:28.681Z,9.78
2019-04-29T19:54:57.403Z,9.74
2019-04-29T19:57:27.165Z,9.72
2019-04-29T19:59:58.362Z,9.62
2019-04-29T20:02:29.383Z,9.62
2019-04-29T20:05:08.260Z,9.48
2019-04-29T20:07:42.331Z,9.56
2019-04-29T20:10:14.749Z,9.48
2019-04-29T20:12:52.781Z,9.46
2019-04-29T20:15:18.350Z,9.46
2019-04-29T20:18:14.939Z,9.41
2019-04-29T20:21:07.976Z,9.38
2019-04-29T20:23:28.512Z,9.32
2019-04-29T20:26:13.015Z,9.36
2019-04-29T20:28:31.594Z,9.36
2019-04-29T20:31:15.461Z,9.31
2019-04-29T20:33:34.577Z,9.25
2019-04-29T20:36:06.243Z,9.22
2019-04-29T20:38:38.796Z,9.17
2019-04-29T20:41:13.013Z,9.09
2019-04-29T20:43:41.706Z,9.08
2019-04-29T20:46:12.131Z,9.09
2019-04-29T20:48:42.726Z,9.12
2019-04-29T20:51:14.607Z,9.11
2019-04-29T20:53:50.365Z,9.07
2019-04-29T20:56:25.298Z,8.99
2019-04-29T20:58:55.168Z,8.97
2019-04-29T21:01:38.101Z,8.95
2019-04-29T21:04:05.920Z,8.96
2019-04-29T21:06:47.354Z,8.92
2019-04-29T21:09:08.933Z,8.93
2019-04-29T21:11:47.590Z,8.85
2019-04-29T21:14:27.211Z,8.82
2019-04-29T21:16:57.516Z,8.81
2019-04-29T21:19:27.519Z,8.83
2019-04-29T21:21:59.146Z,8.83
2019-04-29T21:24:29.433Z,8.87
2019-04-29T21:26:59.898Z,8.85
2019-04-29T21:29:30.957Z,8.77
2019-04-29T21:32:01.771Z,8.72
2019-04-29T21:34:39.848Z,8.68
2019-04-29T21:37:23.387Z,8.72
2019-04-29T21:40:14.843Z,8.65
2019-04-29T21:43:13.435Z,8.56
2019-04-29T21:45:44.967Z,8.58
2019-04-29T21:48:12.883Z,8.42
2019-04-29T21:50:44.859Z,8.38
2019-04-29T21:53:15.369Z,8.46
2019-04-29T21:55:45.922Z,8.44
2019-04-29T21:58:16.452Z,8.49
2019-04-29T22:00:46.675Z,8.47
2019-04-29T22:03:19.884Z,8.50
2019-04-29T22:05:53.639Z,8.53
2019-04-29T22:08:27.142Z,8.56
2019-04-29T22:10:58.128Z,8.48
2019-04-29T22:13:26.132Z,8.55
2019-04-29T22:15:56.700Z,8.48
2019-04-29T22:18:27.335Z,8.52
2019-04-29T22:20:57.644Z,8.55
2019-04-29T22:23:27.950Z,8.56
2019-04-29T22:25:58.346Z,8.60
2019-04-29T22:28:28.476Z,8.64
2019-04-29T22:30:58.740Z,8.65
2019-04-29T22:33:29.642Z,8.65
2019-04-29T22:36:00.805Z,8.61
2019-04-29T22:38:31.080Z,8.56
2019-04-29T22:41:04.973Z,8.59
2019-04-29T22:43:44.657Z,8.61
2019-04-29T22:46:17.209Z,8.62
2019-04-29T22:48:48.722Z,8.67
2019-04-29T22:51:19.111Z,8.68
2019-04-29T22:53:49.585Z,8.65
2019-04-29T22:56:20.012Z,8.66
2019-04-29T22:58:50.332Z,8.68
2019-04-29T23:01:20.558Z,8.67
2019-04-29T23:03:50.803Z,8.59
2019-04-29T23:06:22.351Z,8.62
2019-04-29T23:08:52.940Z,8.58
2019-04-29T23:11:23.190Z,8.46
2019-04-29T23:13:55.306Z,8.47
2019-04-29T23:16:25.400Z,8.47
2019-04-29T23:18:55.519Z,8.49
2019-04-29T23:21:59.757Z,8.50
2019-04-29T23:24:52.658Z,8.57
2019-04-29T23:27:22.842Z,8.60
2019-04-29T23:29:54.136Z,8.54
2019-04-29T23:32:25.396Z,8.53
2019-04-29T23:34:57.264Z,8.49
2019-04-29T23:37:29.405Z,8.50
2019-04-29T23:39:59.971Z,8.56
2019-04-29T23:42:30.152Z,8.58
2019-04-29T23:45:00.362Z,8.55
2019-04-29T23:47:30.605Z,8.56
2019-04-29T23:50:00.805Z,8.55
2019-04-29T23:52:31.022Z,8.49
2019-04-29T23:55:01.214Z,8.50
2019-04-29T23:57:43.536Z,8.50
